Maldives Meteorological Service

TAFS

Station TAF
VRMM
VRMM 271100Z 2712/2818 30008KT 9999 FEW018TCU TEMPO 2712/2718 FEW018CB=
VRMH
VRMH 271100Z 2712/2818 32010KT 9999 FEW018TCU SCT120 TEMPO 2714/2720 5000 -SHRA FEW018CB=
VRMK
VRMK 271100Z 2712/2812 VRB02KT 9999 FEW018 SCT120 TEMPO 2712/2718 FEW018CB=
VRMT
VRMT 271100Z 2712/2812 VRB02KT 9999 FEW018TCU TEMPO 2712/2718 FEW018CB=
VRMG
VRMG 271100Z 2712/2818 22006KT 9999 FEW018 TEMPO 2712/2718 FEW018CB=